Time;durP1;ratioP1;P1;durP2;ratioP2;P2;SDS_P1;SDS_P2;PMS_P1;PMS_P2;Temp;Humidity;BMP_temperature;BMP_pressure;BME280_temperature;BME280_humidity;BME280_pressure;Samples;Min_cycle;Max_cycle;Signal;HPM_P1;HPM_P2
2023/05/11 00:01:17;;;;;;;12.70;6.82;;;;;12.30;96038.00;;;;8442610;27;20186;-72
2023/05/11 00:05:20;;;;;;;16.45;7.20;;;;;12.40;96030.00;;;;8446127;27;20219;-73
2023/05/11 00:09:23;;;;;;;17.55;7.15;;;;;12.40;96029.00;;;;8446246;27;20580;-72
2023/05/11 00:13:27;;;;;;;13.13;6.85;;;;;12.30;96027.00;;;;8455039;27;20725;-74
2023/05/11 00:17:31;;;;;;;16.50;7.07;;;;;12.30;96029.00;;;;8455968;27;20197;-73
2023/05/11 00:21:35;;;;;;;13.50;6.40;;;;;12.40;96030.00;;;;8450349;27;20738;-74
2023/05/11 00:25:38;;;;;;;13.95;7.00;;;;;12.30;96021.00;;;;8454618;27;20240;-74
2023/05/11 00:29:41;;;;;;;15.43;5.95;;;;;12.30;96021.00;;;;8446553;27;20271;-73
2023/05/11 00:33:48;;;;;;;9.45;6.05;;;;;12.30;96010.00;;;;8457160;27;20621;-73
2023/05/11 00:37:52;;;;;;;12.10;5.80;;;;;12.20;96017.00;;;;8455429;27;20272;-73
2023/05/11 00:41:55;;;;;;;14.18;6.07;;;;;12.20;96016.00;;;;8459939;27;20192;-73
2023/05/11 00:46:00;;;;;;;11.15;6.20;;;;;12.20;96010.00;;;;8447744;28;20205;-73
2023/05/11 00:50:07;;;;;;;10.57;5.78;;;;;12.20;96007.00;;;;8459261;28;20229;-73
2023/05/11 00:54:14;;;;;;;15.57;6.00;;;;;12.10;96003.00;;;;8437786;28;20317;-73
2023/05/11 00:58:18;;;;;;;14.52;5.97;;;;;12.10;96006.00;;;;8451376;28;20196;-73
2023/05/11 01:02:22;;;;;;;12.57;6.15;;;;;12.20;96006.00;;;;8457939;28;20268;-73
2023/05/11 01:17:18;;;;;;;14.88;6.90;;;;;12.10;96003.00;;;;8435876;27;20622;-70
2023/05/11 01:53:35;;;;;;;15.45;6.68;;;;;12.00;95988.00;;;;8431909;27;20546;-73
2023/05/11 02:08:18;;;;;;;18.08;8.18;;;;;12.00;95988.00;;;;8444111;28;20223;-73
2023/05/11 02:12:26;;;;;;;21.67;8.07;;;;;12.00;95988.00;;;;8447224;28;20233;-72
2023/05/11 02:16:34;;;;;;;18.92;8.10;;;;;12.00;95993.00;;;;8445411;28;20668;-73
2023/05/11 02:20:43;;;;;;;19.92;8.55;;;;;12.10;95989.00;;;;8446084;28;20204;-73
2023/05/11 02:24:52;;;;;;;22.65;8.38;;;;;12.10;95981.00;;;;8441607;28;20206;-73
2023/05/11 02:28:56;;;;;;;19.77;8.70;;;;;12.10;95984.00;;;;8426355;28;20560;-73
2023/05/11 02:33:06;;;;;;;19.77;8.23;;;;;12.10;95984.00;;;;8426886;28;20314;-73
2023/05/11 02:37:13;;;;;;;20.00;7.90;;;;;12.10;95985.00;;;;8428927;28;20281;-73
2023/05/11 02:41:21;;;;;;;21.13;7.43;;;;;12.10;95989.00;;;;8437344;28;20474;-73
2023/05/11 02:45:30;;;;;;;20.27;8.18;;;;;12.10;95982.00;;;;8425787;28;20296;-73
2023/05/11 02:49:37;;;;;;;20.15;8.30;;;;;12.20;95984.00;;;;8426945;28;20715;-73
2023/05/11 02:53:44;;;;;;;19.55;8.18;;;;;12.20;95979.00;;;;8437405;28;20198;-73
2023/05/11 02:57:47;;;;;;;19.00;8.30;;;;;12.10;95977.00;;;;8429014;28;20265;-74
2023/05/11 03:01:54;;;;;;;25.52;9.55;;;;;12.20;95983.00;;;;8428204;22;20469;-73
2023/05/11 03:05:57;;;;;;;24.92;9.60;;;;;12.20;95977.00;;;;8312590;28;20214;-73
2023/05/11 03:10:00;;;;;;;25.40;9.05;;;;;12.20;95972.00;;;;8317278;28;20236;-73
2023/05/11 03:14:04;;;;;;;24.88;8.88;;;;;12.10;95973.00;;;;8305477;28;20634;-72
2023/05/11 03:18:20;;;;;;;24.58;9.35;;;;;12.10;95965.00;;;;8302637;28;20789;-72
2023/05/11 03:22:24;;;;;;;23.73;9.35;;;;;12.20;95966.00;;;;8319870;28;20653;-75
2023/05/11 03:26:32;;;;;;;19.33;8.05;;;;;12.20;95964.00;;;;8302930;28;20601;-74
2023/05/11 03:30:37;;;;;;;23.23;8.13;;;;;12.10;95960.00;;;;8318165;28;20294;-74
2023/05/11 03:34:45;;;;;;;18.05;7.55;;;;;12.10;95967.00;;;;8312194;28;20247;-73
2023/05/11 03:38:55;;;;;;;18.85;6.88;;;;;12.00;95958.00;;;;8317463;28;20199;-73
2023/05/11 03:43:02;;;;;;;15.27;6.53;;;;;11.90;95963.00;;;;8311698;28;20272;-72
2023/05/11 03:47:06;;;;;;;12.05;5.88;;;;;11.90;95965.00;;;;8312842;28;20208;-74
2023/05/11 03:51:19;;;;;;;10.20;5.40;;;;;11.90;95953.00;;;;8309956;28;20224;-74
2023/05/11 03:55:26;;;;;;;11.77;4.90;;;;;11.80;95956.00;;;;8297489;28;20933;-74
2023/05/11 03:59:29;;;;;;;9.88;4.63;;;;;11.80;95951.00;;;;8311408;28;20209;-73
2023/05/11 04:03:33;;;;;;;10.88;4.88;;;;;11.80;95958.00;;;;8292879;28;20259;-75
2023/05/11 04:07:38;;;;;;;14.70;5.07;;;;;11.70;95955.00;;;;8257813;28;21559;-74
2023/05/11 04:11:41;;;;;;;11.88;5.43;;;;;11.80;95949.00;;;;8277137;28;20270;-75
2023/05/11 04:15:54;;;;;;;10.02;5.45;;;;;11.80;95947.00;;;;8276487;28;20217;-77
2023/05/11 04:19:59;;;;;;;15.88;6.03;;;;;11.70;95959.00;;;;8284881;28;20203;-77
2023/05/11 04:24:09;;;;;;;12.60;6.35;;;;;11.80;95954.00;;;;8271188;28;20258;-79
2023/05/11 04:28:16;;;;;;;16.52;7.07;;;;;11.80;95952.00;;;;8276236;28;20253;-76
2023/05/11 04:32:25;;;;;;;16.58;7.32;;;;;11.90;95952.00;;;;8281672;28;20264;-73
2023/05/11 04:36:28;;;;;;;18.92;7.38;;;;;11.90;95954.00;;;;8278378;28;20683;-77
2023/05/11 04:40:35;;;;;;;18.40;7.45;;;;;11.90;95953.00;;;;8278372;28;20201;-74
2023/05/11 04:44:40;;;;;;;18.50;7.40;;;;;11.90;95953.00;;;;8274880;28;20205;-76
2023/05/11 04:48:45;;;;;;;21.75;8.40;;;;;12.00;95956.00;;;;8278885;28;20218;-75
2023/05/11 04:52:50;;;;;;;18.15;7.82;;;;;12.00;95954.00;;;;8283583;28;20235;-76
2023/05/11 04:56:56;;;;;;;23.45;8.80;;;;;12.00;95954.00;;;;8276257;28;20633;-75
2023/05/11 05:01:00;;;;;;;25.42;9.18;;;;;12.10;95952.00;;;;8280276;28;20893;-74
2023/05/11 05:05:04;;;;;;;23.88;9.13;;;;;12.10;95951.00;;;;8283102;28;20223;-73
2023/05/11 05:09:09;;;;;;;23.40;9.10;;;;;12.20;95949.00;;;;8279626;28;20264;-73
2023/05/11 05:13:15;;;;;;;22.83;9.00;;;;;12.20;95948.00;;;;8277335;28;20239;-72
2023/05/11 05:17:18;;;;;;;25.83;9.25;;;;;12.20;95947.00;;;;8282150;28;20266;-73
2023/05/11 05:21:21;;;;;;;24.48;9.20;;;;;12.30;95949.00;;;;8282432;28;20204;-72
2023/05/11 05:25:26;;;;;;;25.27;8.57;;;;;12.30;95954.00;;;;8275568;28;20256;-72
2023/05/11 05:29:31;;;;;;;21.45;9.15;;;;;12.40;95956.00;;;;8285440;28;20211;-72
2023/05/11 05:33:34;;;;;;;22.95;9.20;;;;;12.40;95957.00;;;;8278131;28;20225;-73
2023/05/11 05:37:38;;;;;;;24.02;9.35;;;;;12.40;95953.00;;;;8275933;28;20296;-73
2023/05/11 05:41:41;;;;;;;27.42;10.18;;;;;12.40;95959.00;;;;8283359;28;20279;-73
2023/05/11 05:45:46;;;;;;;25.85;9.65;;;;;12.50;95959.00;;;;8277791;28;20223;-73
2023/05/11 05:49:51;;;;;;;28.60;11.10;;;;;12.50;95960.00;;;;8283972;28;20199;-73
2023/05/11 05:53:55;;;;;;;27.95;10.07;;;;;12.60;95959.00;;;;8284736;28;20220;-73
2023/05/11 05:57:58;;;;;;;27.15;10.80;;;;;12.70;95970.00;;;;8278175;28;20296;-73
2023/05/11 06:02:05;;;;;;;27.70;9.95;;;;;12.70;95959.00;;;;8279270;28;20237;-73
2023/05/11 06:06:10;;;;;;;26.92;10.15;;;;;12.80;95966.00;;;;8278739;28;20204;-73
2023/05/11 06:10:17;;;;;;;23.25;9.90;;;;;12.80;95973.00;;;;8279687;28;20259;-74
2023/05/11 06:14:21;;;;;;;23.23;9.90;;;;;12.80;95973.00;;;;8280017;28;20656;-73
2023/05/11 06:18:29;;;;;;;25.88;9.90;;;;;12.80;95970.00;;;;8278985;28;20701;-74
2023/05/11 06:22:35;;;;;;;20.75;9.57;;;;;12.90;95965.00;;;;8283848;28;20213;-74
2023/05/11 06:26:38;;;;;;;20.77;9.48;;;;;12.80;95967.00;;;;8278945;28;20198;-77
2023/05/11 06:30:41;;;;;;;28.38;9.80;;;;;12.80;95975.00;;;;8281409;28;20844;-79
2023/05/11 06:34:47;;;;;;;22.92;9.45;;;;;12.80;95964.00;;;;8282127;28;20205;-76
2023/05/11 06:38:50;;;;;;;21.65;9.05;;;;;12.90;95960.00;;;;8286428;28;20197;-75
2023/05/11 06:42:59;;;;;;;23.38;9.35;;;;;12.90;95972.00;;;;8289094;28;20205;-76
2023/05/11 06:47:04;;;;;;;23.70;8.93;;;;;12.90;95964.00;;;;8282588;28;20217;-75
2023/05/11 06:51:14;;;;;;;18.27;8.23;;;;;13.00;95971.00;;;;8279326;28;20235;-73
2023/05/11 06:55:18;;;;;;;19.83;8.30;;;;;13.00;95973.00;;;;8277883;28;20205;-73
2023/05/11 06:59:26;;;;;;;23.13;9.07;;;;;12.90;95963.00;;;;8278296;28;20881;-74
2023/05/11 07:03:29;;;;;;;19.65;8.30;;;;;12.90;95971.00;;;;8285564;28;20264;-74
2023/05/11 07:07:33;;;;;;;17.75;8.10;;;;;12.90;95957.00;;;;8284258;28;20198;-73
2023/05/11 07:11:36;;;;;;;17.70;7.88;;;;;12.90;95965.00;;;;8284823;28;20236;-78
2023/05/11 07:15:43;;;;;;;15.02;6.65;;;;;12.90;95974.00;;;;8277875;28;20194;-75
2023/05/11 07:19:46;;;;;;;15.82;7.00;;;;;13.00;95978.00;;;;8284097;28;20210;-76
2023/05/11 07:23:50;;;;;;;13.20;6.32;;;;;13.10;95973.00;;;;8278881;28;20291;-73
2023/05/11 07:27:53;;;;;;;15.20;6.43;;;;;13.20;95971.00;;;;8282867;28;20252;-75
2023/05/11 07:31:57;;;;;;;15.30;6.57;;;;;13.20;95970.00;;;;8284587;28;20220;-75
2023/05/11 07:36:00;;;;;;;11.13;5.97;;;;;13.30;95973.00;;;;8284788;28;20209;-75
2023/05/11 07:40:07;;;;;;;13.18;5.72;;;;;13.30;95982.00;;;;8272663;28;20268;-73
2023/05/11 07:44:10;;;;;;;10.27;5.78;;;;;13.40;95974.00;;;;8283880;28;20254;-77
2023/05/11 07:48:16;;;;;;;9.35;5.53;;;;;13.30;95973.00;;;;8274426;28;20221;-75
2023/05/11 07:52:22;;;;;;;8.88;5.20;;;;;13.30;95970.00;;;;8283642;28;20323;-76
2023/05/11 07:56:27;;;;;;;11.63;5.35;;;;;13.40;95967.00;;;;8285025;28;20205;-76
2023/05/11 08:00:33;;;;;;;8.65;5.35;;;;;13.50;95967.00;;;;8280249;28;20279;-76
2023/05/11 08:04:36;;;;;;;9.02;5.63;;;;;13.40;95971.00;;;;8281642;28;20241;-75
2023/05/11 08:08:44;;;;;;;6.10;4.25;;;;;13.40;95973.00;;;;8279573;28;20252;-75
2023/05/11 08:12:48;;;;;;;9.27;4.97;;;;;13.40;95982.00;;;;8286573;28;20233;-74
2023/05/11 08:16:54;;;;;;;10.20;5.03;;;;;13.40;95973.00;;;;8274074;28;20257;-76
2023/05/11 08:20:57;;;;;;;5.95;4.50;;;;;13.50;95979.00;;;;8279024;28;20205;-77
2023/05/11 08:25:01;;;;;;;9.43;4.90;;;;;13.40;95979.00;;;;8281416;28;20567;-75
2023/05/11 08:29:05;;;;;;;10.57;4.68;;;;;13.50;95985.00;;;;8277955;28;20205;-74
2023/05/11 08:33:09;;;;;;;7.00;3.83;;;;;13.60;95981.00;;;;8280040;28;20240;-76
2023/05/11 08:37:32;;;;;;;4.50;3.50;;;;;13.60;95984.00;;;;8283096;28;20205;-72
2023/05/11 08:41:35;;;;;;;5.13;3.53;;;;;13.60;95981.00;;;;8277824;28;20202;-72
2023/05/11 08:45:46;;;;;;;4.10;3.22;;;;;13.70;95977.00;;;;8278564;28;20271;-72
2023/05/11 08:49:51;;;;;;;5.70;3.35;;;;;13.60;95987.00;;;;8276306;28;20296;-73
2023/05/11 08:53:56;;;;;;;4.15;3.55;;;;;13.70;95983.00;;;;8279303;28;20250;-73
2023/05/11 08:58:05;;;;;;;3.75;3.33;;;;;13.80;95980.00;;;;8276893;28;20273;-72
2023/05/11 09:02:19;;;;;;;6.07;3.53;;;;;14.10;95977.00;;;;8274183;28;20225;-76
2023/05/11 09:06:24;;;;;;;8.23;3.70;;;;;14.20;95979.00;;;;8279534;28;20205;-73
2023/05/11 09:10:31;;;;;;;6.07;3.67;;;;;14.20;95977.00;;;;8282152;28;20273;-74
2023/05/11 09:14:38;;;;;;;3.28;2.97;;;;;14.20;95977.00;;;;8273762;28;20273;-74
2023/05/11 09:18:54;;;;;;;3.20;2.90;;;;;14.20;95991.00;;;;8280736;28;20256;-74
2023/05/11 09:23:02;;;;;;;3.28;2.42;;;;;14.20;95982.00;;;;8277777;28;20213;-73
2023/05/11 09:27:11;;;;;;;5.10;2.83;;;;;14.10;95983.00;;;;8280320;28;20210;-74
2023/05/11 09:31:36;;;;;;;2.95;2.50;;;;;14.20;95978.00;;;;8285093;28;20285;-72
2023/05/11 09:35:44;;;;;;;2.30;2.10;;;;;14.20;95980.00;;;;8280208;28;20582;-74
2023/05/11 09:39:54;;;;;;;2.80;2.45;;;;;14.00;95967.00;;;;8279695;28;20201;-73
2023/05/11 09:44:20;;;;;;;2.45;2.25;;;;;13.90;95974.00;;;;8277849;28;20209;-72
2023/05/11 09:48:26;;;;;;;3.20;2.50;;;;;13.90;95971.00;;;;8281678;28;20210;-71
2023/05/11 09:52:31;;;;;;;5.63;3.10;;;;;14.00;95977.00;;;;8276697;28;20229;-71
2023/05/11 09:56:53;;;;;;;4.72;2.80;;;;;13.90;95976.00;;;;8286380;28;20202;-73
2023/05/11 10:00:56;;;;;;;5.80;3.40;;;;;13.90;95984.00;;;;8281750;28;20202;-73
2023/05/11 10:05:10;;;;;;;7.20;4.20;;;;;14.10;95983.00;;;;8281142;28;20807;-72
2023/05/11 10:09:16;;;;;;;9.00;3.65;;;;;14.30;95986.00;;;;8286509;28;20237;-71
2023/05/11 10:13:19;;;;;;;5.25;3.55;;;;;14.60;95979.00;;;;8280752;28;20721;-72
2023/05/11 10:17:22;;;;;;;4.70;3.22;;;;;14.70;95971.00;;;;8280760;28;20834;-73
2023/05/11 10:21:26;;;;;;;4.10;2.83;;;;;14.50;95963.00;;;;8283009;28;20352;-71
2023/05/11 10:25:34;;;;;;;3.80;3.17;;;;;14.40;95964.00;;;;8278426;28;21165;-73
2023/05/11 10:29:37;;;;;;;5.18;3.03;;;;;14.30;95960.00;;;;8284897;28;20232;-73
2023/05/11 10:33:42;;;;;;;4.10;2.97;;;;;14.10;95972.00;;;;8285188;28;20626;-74
2023/05/11 10:37:46;;;;;;;6.80;2.92;;;;;14.10;95960.00;;;;8282031;28;20256;-70
2023/05/11 10:42:04;;;;;;;3.60;2.70;;;;;14.10;95973.00;;;;8282298;28;20252;-71
2023/05/11 10:46:22;;;;;;;3.22;2.92;;;;;14.10;95964.00;;;;8286911;28;20213;-72
2023/05/11 10:50:55;;;;;;;4.88;3.97;;;;;14.00;95963.00;;;;8281385;28;20644;-71
2023/05/11 10:55:10;;;;;;;6.80;3.47;;;;;13.90;95963.00;;;;8277520;28;20231;-70
2023/05/11 10:59:40;;;;;;;6.88;3.75;;;;;14.10;95970.00;;;;8286171;28;20213;-72
2023/05/11 11:03:56;;;;;;;5.45;3.35;;;;;14.50;95961.00;;;;8291388;28;20234;-71
2023/05/11 11:08:02;;;;;;;3.67;2.92;;;;;14.60;95966.00;;;;8278123;28;20265;-71
2023/05/11 11:12:09;;;;;;;3.65;2.72;;;;;14.50;95961.00;;;;8285539;28;20651;-71
2023/05/11 11:16:15;;;;;;;6.75;2.92;;;;;14.50;95970.00;;;;8279177;28;20816;-72
2023/05/11 11:20:48;;;;;;;4.18;2.97;;;;;14.50;95967.00;;;;8276354;28;20201;-72
2023/05/11 11:24:51;;;;;;;3.10;2.80;;;;;14.50;95970.00;;;;8276137;28;20206;-71
2023/05/11 11:29:13;;;;;;;2.85;2.60;;;;;14.50;95971.00;;;;8282336;28;20202;-72
2023/05/11 11:33:36;;;;;;;23.60;8.52;;;;;14.60;95971.00;;;;8284146;28;20364;-72
2023/05/11 11:38:03;;;;;;;8.52;4.28;;;;;14.70;95964.00;;;;8283401;28;20197;-71
2023/05/11 11:42:11;;;;;;;7.75;5.35;;;;;14.70;95979.00;;;;8275406;28;20202;-72
2023/05/11 11:46:26;;;;;;;5.82;4.40;;;;;14.80;95982.00;;;;8275851;28;20202;-71
2023/05/11 11:50:31;;;;;;;3.42;2.80;;;;;14.80;95982.00;;;;8281600;28;20556;-71
2023/05/11 11:54:38;;;;;;;2.63;2.42;;;;;14.80;95979.00;;;;8279505;28;20709;-71
2023/05/11 11:58:59;;;;;;;5.25;2.20;;;;;14.90;95985.00;;;;8281648;28;20208;-70
2023/05/11 12:03:03;;;;;;;4.63;2.30;;;;;14.90;95982.00;;;;8280744;28;20353;-71
2023/05/11 12:07:12;;;;;;;2.30;1.98;;;;;14.90;95988.00;;;;8281093;28;20899;-71
2023/05/11 12:11:18;;;;;;;4.05;2.05;;;;;14.80;95992.00;;;;8283466;28;20211;-70
2023/05/11 12:15:25;;;;;;;3.88;2.30;;;;;14.80;95994.00;;;;8279502;28;20230;-71
2023/05/11 12:19:29;;;;;;;2.45;1.90;;;;;14.70;95992.00;;;;8273144;28;20252;-72
2023/05/11 12:23:37;;;;;;;2.30;2.10;;;;;14.60;95988.00;;;;8274125;28;20232;-71
2023/05/11 12:27:50;;;;;;;2.15;2.05;;;;;14.50;95993.00;;;;8272366;28;20199;-71
2023/05/11 12:31:57;;;;;;;3.35;2.50;;;;;14.40;95992.00;;;;8272501;28;20268;-72
2023/05/11 12:36:02;;;;;;;2.75;2.55;;;;;14.30;95997.00;;;;8278456;28;20229;-71
2023/05/11 12:40:13;;;;;;;2.33;1.95;;;;;14.40;95992.00;;;;8280428;28;20198;-71
2023/05/11 12:44:17;;;;;;;2.47;1.90;;;;;14.50;95994.00;;;;8274311;28;20244;-70
2023/05/11 12:48:21;;;;;;;5.65;1.77;;;;;14.60;95983.00;;;;8276582;28;20210;-71
2023/05/11 12:52:26;;;;;;;2.08;1.92;;;;;14.70;95988.00;;;;8281085;28;20217;-70
2023/05/11 12:56:31;;;;;;;2.35;1.90;;;;;14.80;95987.00;;;;8278513;28;20428;-70
2023/05/11 13:00:34;;;;;;;1.77;1.67;;;;;14.80;95989.00;;;;8282693;28;20194;-71
2023/05/11 13:04:39;;;;;;;2.95;1.90;;;;;14.80;95986.00;;;;8282750;28;20226;-71
2023/05/11 13:08:45;;;;;;;4.45;2.05;;;;;14.60;95982.00;;;;8275609;28;20220;-70
2023/05/11 13:12:53;;;;;;;7.13;2.53;;;;;14.50;95982.00;;;;8276572;28;20252;-71
2023/05/11 13:17:00;;;;;;;2.72;2.20;;;;;14.50;95985.00;;;;8273779;28;20241;-70
2023/05/11 13:21:09;;;;;;;3.10;2.30;;;;;14.30;95989.00;;;;8272904;28;20194;-74
2023/05/11 13:25:13;;;;;;;4.68;2.00;;;;;14.30;95990.00;;;;8281660;28;20252;-73
2023/05/11 13:29:19;;;;;;;4.93;2.95;;;;;14.20;95981.00;;;;8283774;28;20194;-73
2023/05/11 13:33:22;;;;;;;3.45;2.75;;;;;14.30;95983.00;;;;8275799;28;20206;-72
2023/05/11 13:37:26;;;;;;;6.38;3.13;;;;;14.40;95987.00;;;;8277326;28;20593;-72
2023/05/11 13:41:29;;;;;;;4.03;2.53;;;;;14.50;95985.00;;;;8277325;28;20592;-72
2023/05/11 13:45:33;;;;;;;4.45;2.78;;;;;14.50;95979.00;;;;8272196;28;20941;-72
2023/05/11 13:49:42;;;;;;;6.93;3.13;;;;;14.50;95973.00;;;;8274131;28;20289;-71
2023/05/11 13:53:48;;;;;;;4.88;3.25;;;;;14.40;95979.00;;;;8276862;28;20214;-72
2023/05/11 13:57:55;;;;;;;2.67;2.42;;;;;14.40;95972.00;;;;8274074;28;20197;-71
2023/05/11 14:02:09;;;;;;;4.90;3.30;;;;;14.30;95974.00;;;;8278754;28;20225;-70
2023/05/11 14:06:12;;;;;;;6.38;3.28;;;;;14.20;95977.00;;;;8291611;28;20209;-71
2023/05/11 14:10:23;;;;;;;4.45;2.63;;;;;14.20;95980.00;;;;8298616;28;20193;-70
2023/05/11 14:14:27;;;;;;;7.60;4.68;;;;;14.10;95971.00;;;;8298094;28;20225;-70
2023/05/11 14:18:34;;;;;;;5.50;3.60;;;;;14.10;95980.00;;;;8287624;28;20210;-70
2023/05/11 14:22:38;;;;;;;5.47;3.75;;;;;13.90;95985.00;;;;8273551;28;20199;-69
2023/05/11 14:26:45;;;;;;;5.63;3.53;;;;;13.90;95979.00;;;;8286197;28;20194;-68
2023/05/11 14:30:48;;;;;;;6.07;3.60;;;;;14.00;95976.00;;;;8286140;28;20194;-70
2023/05/11 14:34:53;;;;;;;5.45;3.58;;;;;14.00;95983.00;;;;8264542;28;20238;-69
2023/05/11 14:38:56;;;;;;;8.27;3.80;;;;;14.10;95981.00;;;;8276689;28;20221;-70
2023/05/11 14:43:00;;;;;;;6.35;3.72;;;;;14.10;95972.00;;;;8278095;28;20599;-69
2023/05/11 14:47:05;;;;;;;4.90;3.67;;;;;14.10;95980.00;;;;8294096;28;20202;-69
2023/05/11 14:51:10;;;;;;;6.03;3.60;;;;;14.00;95975.00;;;;8300785;28;20198;-70
2023/05/11 14:55:17;;;;;;;7.55;4.45;;;;;14.10;95981.00;;;;8295447;28;20218;-69
2023/05/11 14:59:23;;;;;;;8.30;3.75;;;;;14.00;95976.00;;;;8286453;28;20213;-70
2023/05/11 15:03:32;;;;;;;5.25;3.53;;;;;13.90;95980.00;;;;8290669;28;20774;-69
2023/05/11 15:07:38;;;;;;;6.72;3.55;;;;;13.90;95985.00;;;;8285339;28;20198;-69
2023/05/11 15:11:41;;;;;;;10.20;4.32;;;;;13.80;95990.00;;;;8287710;28;20244;-70
2023/05/11 15:15:44;;;;;;;8.48;4.50;;;;;13.90;95986.00;;;;8291481;28;20229;-68
2023/05/11 15:19:47;;;;;;;6.40;3.65;;;;;13.80;95994.00;;;;8287754;28;20202;-69
2023/05/11 15:23:54;;;;;;;5.40;3.35;;;;;13.90;95993.00;;;;8285980;28;20264;-69
2023/05/11 15:27:58;;;;;;;6.20;3.80;;;;;13.90;95999.00;;;;8285019;28;20268;-69
2023/05/11 15:32:02;;;;;;;7.45;3.80;;;;;14.00;96001.00;;;;8289560;28;20671;-68
2023/05/11 15:36:14;;;;;;;6.28;3.35;;;;;14.10;96011.00;;;;8284803;28;20276;-70
2023/05/11 15:40:19;;;;;;;10.88;4.97;;;;;14.10;96004.00;;;;8285977;28;20732;-70
2023/05/11 15:44:22;;;;;;;5.53;3.83;;;;;14.00;96009.00;;;;8287478;28;20202;-71
2023/05/11 15:48:27;;;;;;;11.75;5.90;;;;;14.00;96006.00;;;;8280495;28;20206;-70
2023/05/11 15:52:36;;;;;;;17.60;6.55;;;;;13.90;96003.00;;;;8293350;28;20201;-71
2023/05/11 15:56:42;;;;;;;7.95;4.25;;;;;13.80;96015.00;;;;8282506;28;20253;-70
2023/05/11 16:00:45;;;;;;;11.77;5.05;;;;;13.70;96007.00;;;;8278698;28;20197;-71
2023/05/11 16:04:57;;;;;;;11.55;5.13;;;;;13.70;96010.00;;;;8286041;28;20590;-70
2023/05/11 16:09:00;;;;;;;10.07;4.75;;;;;13.70;96021.00;;;;8292201;28;20208;-71
2023/05/11 16:13:04;;;;;;;15.63;6.00;;;;;13.80;96015.00;;;;8285781;28;20206;-71
2023/05/11 16:17:09;;;;;;;15.15;6.43;;;;;13.70;96020.00;;;;8287298;28;20732;-71
2023/05/11 16:21:15;;;;;;;8.98;3.97;;;;;13.60;96019.00;;;;8294742;28;20211;-71
2023/05/11 16:25:18;;;;;;;6.18;3.70;;;;;13.50;96026.00;;;;8290626;28;20229;-71
2023/05/11 16:29:25;;;;;;;5.82;3.75;;;;;13.30;96024.00;;;;8288067;28;20730;-71
2023/05/11 16:33:31;;;;;;;6.50;3.13;;;;;13.10;96018.00;;;;8293160;28;20206;-71
2023/05/11 16:37:35;;;;;;;9.02;3.38;;;;;12.90;96023.00;;;;8288472;28;20234;-71
2023/05/11 16:41:38;;;;;;;6.63;4.57;;;;;12.90;96017.00;;;;8288468;28;20216;-71
2023/05/11 16:45:45;;;;;;;5.40;3.33;;;;;12.80;96018.00;;;;8292604;28;20205;-71
2023/05/11 16:49:51;;;;;;;7.20;4.05;;;;;12.80;96023.00;;;;8288206;28;20244;-71
2023/05/11 16:53:56;;;;;;;8.82;4.40;;;;;12.80;96022.00;;;;8293931;28;20274;-70
2023/05/11 16:57:59;;;;;;;9.23;5.68;;;;;12.80;96022.00;;;;8291385;28;20261;-71
2023/05/11 17:02:05;;;;;;;12.13;6.45;;;;;12.70;96017.00;;;;8291450;28;21060;-71
2023/05/11 17:06:12;;;;;;;12.43;4.20;;;;;12.70;96024.00;;;;8288808;28;20202;-70
2023/05/11 17:10:15;;;;;;;9.55;4.50;;;;;12.70;96020.00;;;;8288316;28;20296;-71
2023/05/11 17:14:19;;;;;;;9.20;4.22;;;;;12.70;96025.00;;;;8288654;28;20198;-71
2023/05/11 17:18:24;;;;;;;13.15;4.78;;;;;12.70;96029.00;;;;8286230;28;20294;-71
2023/05/11 17:22:31;;;;;;;11.32;4.53;;;;;12.70;96018.00;;;;8292452;28;20247;-70
2023/05/11 17:26:34;;;;;;;8.32;4.15;;;;;12.70;96027.00;;;;8288570;28;20730;-71
2023/05/11 17:30:53;;;;;;;8.93;3.90;;;;;12.70;96022.00;;;;8287439;28;20797;-70
2023/05/11 17:34:57;;;;;;;12.60;5.55;;;;;12.70;96022.00;;;;8285219;28;20209;-71
2023/05/11 17:39:04;;;;;;;19.00;6.78;;;;;12.60;96026.00;;;;8287415;28;20197;-71
2023/05/11 17:43:07;;;;;;;38.00;9.77;;;;;12.60;96032.00;;;;8286503;28;20687;-70
2023/05/11 17:47:10;;;;;;;7.82;4.95;;;;;12.60;96038.00;;;;8281179;28;20210;-71
2023/05/11 17:51:15;;;;;;;7.75;4.55;;;;;12.60;96035.00;;;;8286886;28;20244;-72
2023/05/11 17:55:23;;;;;;;14.00;5.32;;;;;12.70;96032.00;;;;8282493;28;20233;-72
2023/05/11 17:59:28;;;;;;;10.15;4.70;;;;;12.60;96038.00;;;;8283917;28;20206;-71
2023/05/11 18:03:35;;;;;;;9.48;4.13;;;;;12.60;96044.00;;;;8282119;28;20237;-71
2023/05/11 18:07:42;;;;;;;11.98;4.38;;;;;12.60;96045.00;;;;8269957;28;20205;-71
2023/05/11 18:11:45;;;;;;;7.53;4.78;;;;;12.50;96046.00;;;;8287966;28;20256;-70
2023/05/11 18:16:04;;;;;;;10.60;4.80;;;;;12.50;96053.00;;;;8290744;28;20264;-71
2023/05/11 18:20:10;;;;;;;16.25;5.45;;;;;12.50;96048.00;;;;8284716;28;20879;-71
2023/05/11 18:24:15;;;;;;;10.30;5.18;;;;;12.50;96050.00;;;;8279149;28;20196;-71
2023/05/11 18:28:21;;;;;;;7.85;5.05;;;;;12.40;96057.00;;;;8279566;28;20642;-71
2023/05/11 18:32:24;;;;;;;11.50;5.45;;;;;12.40;96054.00;;;;8285270;28;20202;-71
2023/05/11 18:36:28;;;;;;;13.23;6.43;;;;;12.40;96054.00;;;;8285774;28;20229;-71
2023/05/11 18:40:33;;;;;;;9.73;5.40;;;;;12.30;96054.00;;;;8298132;28;20213;-71
2023/05/11 18:44:43;;;;;;;12.68;5.85;;;;;12.20;96054.00;;;;8295170;28;20285;-71
2023/05/11 18:48:48;;;;;;;15.43;6.38;;;;;12.20;96056.00;;;;8288964;28;20236;-71
2023/05/11 18:52:51;;;;;;;16.20;6.53;;;;;12.20;96052.00;;;;8270357;28;20251;-70
2023/05/11 18:57:00;;;;;;;15.68;6.68;;;;;12.10;96056.00;;;;8282849;28;20223;-71
2023/05/11 19:01:08;;;;;;;21.67;7.45;;;;;12.10;96061.00;;;;8282001;28;20209;-71
2023/05/11 19:05:16;;;;;;;24.13;8.75;;;;;12.10;96062.00;;;;8284398;28;20243;-69
2023/05/11 19:09:20;;;;;;;19.40;10.27;;;;;12.10;96068.00;;;;8278373;28;20201;-69
2023/05/11 19:13:27;;;;;;;23.88;8.93;;;;;12.10;96068.00;;;;8296164;28;20208;-71
2023/05/11 19:17:30;;;;;;;22.98;9.38;;;;;12.00;96078.00;;;;8288940;28;20292;-71
2023/05/11 19:21:38;;;;;;;25.98;10.20;;;;;12.00;96081.00;;;;8291267;28;20206;-72
2023/05/11 19:25:45;;;;;;;22.35;9.30;;;;;12.00;96084.00;;;;8284034;28;20333;-71
2023/05/11 19:29:50;;;;;;;22.23;8.85;;;;;12.00;96081.00;;;;8286598;28;20198;-70
2023/05/11 19:33:55;;;;;;;24.30;9.68;;;;;12.00;96084.00;;;;8286408;28;20201;-72
2023/05/11 19:37:58;;;;;;;18.27;8.93;;;;;12.00;96085.00;;;;8292393;28;20719;-71
2023/05/11 19:42:02;;;;;;;22.85;9.90;;;;;12.00;96090.00;;;;8286713;28;20206;-70
2023/05/11 19:46:10;;;;;;;24.80;9.10;;;;;12.00;96088.00;;;;8284027;28;20733;-71
2023/05/11 19:50:17;;;;;;;19.58;8.02;;;;;12.00;96090.00;;;;8283171;28;20204;-72
2023/05/11 19:54:23;;;;;;;19.77;9.25;;;;;11.90;96093.00;;;;8281325;28;20227;-71
2023/05/11 19:58:26;;;;;;;29.33;11.57;;;;;11.90;96087.00;;;;8281831;28;20239;-71
2023/05/11 20:02:34;;;;;;;16.58;7.88;;;;;11.90;96087.00;;;;8284984;28;20258;-72
2023/05/11 20:06:40;;;;;;;19.63;8.10;;;;;11.90;96096.00;;;;8286953;28;20212;-71
2023/05/11 20:10:45;;;;;;;16.77;7.38;;;;;11.90;96092.00;;;;8296907;28;20206;-72
2023/05/11 20:14:51;;;;;;;18.98;7.70;;;;;11.80;96086.00;;;;8287112;28;20232;-72
2023/05/11 20:18:59;;;;;;;21.50;7.40;;;;;11.90;96086.00;;;;8284095;28;20226;-72
2023/05/11 20:23:02;;;;;;;16.70;7.28;;;;;11.80;96087.00;;;;8282591;28;20208;-71
2023/05/11 20:27:09;;;;;;;12.23;6.70;;;;;11.80;96093.00;;;;8286701;28;20204;-72
2023/05/11 20:31:14;;;;;;;16.70;8.23;;;;;11.80;96087.00;;;;8285650;28;20256;-72
2023/05/11 20:35:21;;;;;;;17.95;6.88;;;;;11.80;96080.00;;;;8288306;28;20580;-72
2023/05/11 20:39:31;;;;;;;15.75;7.40;;;;;11.80;96086.00;;;;8279404;28;20263;-72
2023/05/11 20:43:38;;;;;;;14.23;6.53;;;;;11.80;96088.00;;;;8284695;28;20202;-72
2023/05/11 20:47:41;;;;;;;18.67;8.10;;;;;11.70;96078.00;;;;8285882;28;20217;-72
2023/05/11 20:51:49;;;;;;;20.50;7.63;;;;;11.70;96076.00;;;;8288008;28;20760;-72
2023/05/11 20:55:53;;;;;;;21.83;8.52;;;;;11.70;96078.00;;;;8285328;28;20700;-73
2023/05/11 21:00:14;;;;;;;18.95;7.32;;;;;11.70;96076.00;;;;8286467;28;20814;-73
2023/05/11 21:04:21;;;;;;;17.52;7.82;;;;;11.70;96082.00;;;;8285208;28;20632;-73
2023/05/11 21:08:25;;;;;;;19.50;7.78;;;;;11.70;96084.00;;;;8284837;28;20684;-73
2023/05/11 21:12:29;;;;;;;18.10;7.63;;;;;11.70;96084.00;;;;8285820;28;20268;-73
2023/05/11 21:16:32;;;;;;;18.73;7.55;;;;;11.70;96078.00;;;;8282878;28;20231;-74